Time;durP1;ratioP1;P1;durP2;ratioP2;P2;SDS_P1;SDS_P2;PMS_P1;PMS_P2;Temp;Humidity;BMP_temperature;BMP_pressure;BME280_temperature;BME280_humidity;BME280_pressure;Samples;Min_cycle;Max_cycle;Signal;HPM_P1;HPM_P2
2023/03/23 00:00:43;;;;;;;55.15;23.83;;;;;;;;;;5095138;28;20027;-71
2023/03/23 00:03:31;;;;;;;47.03;22.23;;;;;;;;;;5094271;28;20039;-71
2023/03/23 00:06:20;;;;;;;53.35;22.13;;;;;;;;;;5094204;28;20044;-71
2023/03/23 00:09:06;;;;;;;46.40;21.65;;;;;;;;;;5094106;28;20515;-71
2023/03/23 00:11:56;;;;;;;44.95;21.88;;;;;;;;;;5079269;28;20111;-71
2023/03/23 00:14:42;;;;;;;49.10;22.17;;;;;;;;;;5093535;28;20058;-71
2023/03/23 00:17:28;;;;;;;51.78;22.70;;;;;;;;;;5094580;28;20028;-71
2023/03/23 00:20:14;;;;;;;47.38;20.30;;;;;;;;;;5094342;28;20326;-71
2023/03/23 00:23:00;;;;;;;45.22;21.63;;;;;;;;;;5094579;28;20120;-71
2023/03/23 00:25:47;;;;;;;46.90;19.85;;;;;;;;;;5080429;28;20165;-71
2023/03/23 00:28:32;;;;;;;44.75;21.50;;;;;;;;;;5094066;28;20024;-71
2023/03/23 00:31:19;;;;;;;47.53;22.88;;;;;;;;;;5080020;28;20031;-71
2023/03/23 00:34:05;;;;;;;54.40;22.83;;;;;;;;;;5094609;28;20023;-72
2023/03/23 00:36:56;;;;;;;43.85;21.08;;;;;;;;;;5079180;28;20031;-72
2023/03/23 00:39:44;;;;;;;43.78;21.60;;;;;;;;;;5095532;28;20440;-72
2023/03/23 00:42:29;;;;;;;36.92;19.35;;;;;;;;;;5079889;28;20032;-71
2023/03/23 00:45:16;;;;;;;40.33;19.00;;;;;;;;;;5093425;28;20071;-71
2023/03/23 00:48:04;;;;;;;40.95;20.15;;;;;;;;;;5097937;28;20102;-71
2023/03/23 00:50:51;;;;;;;33.83;19.27;;;;;;;;;;5098102;28;20095;-71
2023/03/23 00:53:36;;;;;;;38.05;20.48;;;;;;;;;;5098368;28;20016;-71
2023/03/23 00:56:23;;;;;;;31.40;18.25;;;;;;;;;;5098222;28;20099;-72
2023/03/23 00:59:09;;;;;;;32.40;18.52;;;;;;;;;;5098101;28;20403;-71
2023/03/23 01:01:54;;;;;;;26.77;16.20;;;;;;;;;;5097746;28;20028;-71
2023/03/23 01:04:44;;;;;;;25.88;15.98;;;;;;;;;;5097332;28;20027;-72
2023/03/23 01:07:30;;;;;;;25.58;16.55;;;;;;;;;;5083264;28;20052;-72
2023/03/23 01:10:17;;;;;;;26.27;16.63;;;;;;;;;;5097408;28;20024;-72
2023/03/23 01:13:03;;;;;;;26.45;15.70;;;;;;;;;;5097560;28;20023;-72
2023/03/23 01:15:48;;;;;;;31.55;18.30;;;;;;;;;;5097057;28;20029;-72
2023/03/23 01:18:35;;;;;;;30.73;18.08;;;;;;;;;;5097194;28;20048;-72
2023/03/23 01:21:21;;;;;;;27.88;16.95;;;;;;;;;;5097173;28;20030;-72
2023/03/23 01:24:07;;;;;;;27.33;17.38;;;;;;;;;;5096524;28;20055;-72
2023/03/23 01:26:52;;;;;;;29.17;17.25;;;;;;;;;;5096499;28;20024;-72
2023/03/23 01:29:38;;;;;;;30.02;18.85;;;;;;;;;;5097371;28;20038;-72
2023/03/23 01:32:24;;;;;;;28.90;17.00;;;;;;;;;;5096287;28;20085;-72
2023/03/23 01:35:11;;;;;;;28.88;17.45;;;;;;;;;;5096818;28;20100;-71
2023/03/23 01:37:57;;;;;;;28.77;17.80;;;;;;;;;;5096054;28;20103;-71
2023/03/23 01:40:43;;;;;;;43.28;22.13;;;;;;;;;;5096188;28;20459;-71
2023/03/23 01:43:29;;;;;;;44.05;23.40;;;;;;;;;;5082584;28;20031;-71
2023/03/23 01:46:15;;;;;;;40.38;22.60;;;;;;;;;;5097005;28;20028;-71
2023/03/23 01:49:26;;;;;;;42.08;22.55;;;;;;;;;;5096598;28;20461;-71
2023/03/23 01:52:17;;;;;;;34.60;19.67;;;;;;;;;;5097266;28;20024;-71
2023/03/23 01:55:03;;;;;;;33.08;18.30;;;;;;;;;;5096682;28;20024;-71
2023/03/23 01:57:49;;;;;;;25.60;16.98;;;;;;;;;;5096050;28;20089;-71
2023/03/23 02:00:34;;;;;;;28.50;18.10;;;;;;;;;;5095911;28;20077;-72
2023/03/23 02:03:23;;;;;;;28.17;16.95;;;;;;;;;;5082746;28;20016;-72
2023/03/23 02:06:08;;;;;;;30.63;16.90;;;;;;;;;;5096216;28;20127;-72
2023/03/23 02:08:55;;;;;;;28.17;16.98;;;;;;;;;;5082319;28;20460;-72
2023/03/23 02:11:40;;;;;;;29.92;18.50;;;;;;;;;;5081943;28;20032;-72
2023/03/23 02:14:27;;;;;;;31.98;19.02;;;;;;;;;;5095726;28;20523;-71
2023/03/23 02:17:20;;;;;;;28.65;18.58;;;;;;;;;;5097400;28;20031;-71
2023/03/23 02:20:13;;;;;;;31.27;18.60;;;;;;;;;;5096610;28;20012;-72
2023/03/23 02:23:12;;;;;;;31.98;19.25;;;;;;;;;;5096047;28;20569;-71
2023/03/23 02:26:02;;;;;;;31.23;19.38;;;;;;;;;;5096612;28;20106;-71
2023/03/23 02:29:03;;;;;;;33.85;20.02;;;;;;;;;;5080889;28;20102;-72
2023/03/23 02:31:48;;;;;;;29.95;18.88;;;;;;;;;;5080753;28;20039;-71
2023/03/23 02:34:56;;;;;;;35.60;20.70;;;;;;;;;;5095028;28;20032;-71
2023/03/23 02:37:47;;;;;;;30.48;18.88;;;;;;;;;;5096182;28;20016;-71
2023/03/23 02:40:38;;;;;;;31.75;18.92;;;;;;;;;;5095730;28;20024;-71
2023/03/23 02:43:25;;;;;;;38.88;22.10;;;;;;;;;;5095624;28;20021;-71
2023/03/23 02:46:11;;;;;;;35.65;20.73;;;;;;;;;;5095797;28;20409;-72
2023/03/23 02:48:58;;;;;;;31.45;19.13;;;;;;;;;;5096219;28;20039;-72
2023/03/23 02:51:46;;;;;;;32.10;19.70;;;;;;;;;;5095357;28;20409;-71
2023/03/23 02:54:31;;;;;;;32.33;19.77;;;;;;;;;;5096402;28;20027;-72
2023/03/23 02:57:17;;;;;;;31.15;19.08;;;;;;;;;;5095519;28;20464;-71
2023/03/23 03:00:05;;;;;;;33.53;20.50;;;;;;;;;;5094461;28;20102;-71
2023/03/23 03:02:53;;;;;;;37.97;23.13;;;;;;;;;;5094500;28;20103;-71
2023/03/23 03:05:48;;;;;;;35.65;21.23;;;;;;;;;;5080611;28;20046;-71
2023/03/23 03:08:44;;;;;;;32.10;20.92;;;;;;;;;;5094630;28;20020;-72
2023/03/23 03:11:31;;;;;;;32.85;21.05;;;;;;;;;;5080589;28;20042;-72
2023/03/23 03:14:23;;;;;;;31.88;20.83;;;;;;;;;;5080977;28;20024;-71
2023/03/23 03:17:18;;;;;;;35.35;21.85;;;;;;;;;;5095773;28;20020;-71
2023/03/23 03:20:09;;;;;;;32.13;20.67;;;;;;;;;;5094459;28;20020;-72
2023/03/23 03:22:56;;;;;;;36.78;22.10;;;;;;;;;;5094871;28;20020;-71
2023/03/23 03:25:47;;;;;;;33.38;21.17;;;;;;;;;;5094365;28;20086;-71
2023/03/23 03:28:33;;;;;;;33.45;19.90;;;;;;;;;;5096011;28;20095;-72
2023/03/23 03:31:20;;;;;;;32.10;20.10;;;;;;;;;;5094931;28;20031;-71
2023/03/23 03:34:06;;;;;;;35.53;21.45;;;;;;;;;;5095974;28;20024;-71
2023/03/23 03:36:53;;;;;;;33.80;21.83;;;;;;;;;;5080670;28;20070;-72
2023/03/23 03:39:39;;;;;;;35.10;21.42;;;;;;;;;;5094104;28;20032;-72
2023/03/23 03:42:25;;;;;;;34.05;21.63;;;;;;;;;;5094335;28;20028;-71
2023/03/23 03:45:12;;;;;;;40.00;23.80;;;;;;;;;;5079814;28;20305;-73
2023/03/23 03:47:58;;;;;;;33.45;20.88;;;;;;;;;;5081205;28;20429;-72
2023/03/23 03:50:45;;;;;;;35.45;21.58;;;;;;;;;;5095900;28;20028;-72
2023/03/23 03:53:30;;;;;;;31.20;20.98;;;;;;;;;;5080238;28;20464;-71
2023/03/23 03:56:16;;;;;;;36.33;22.08;;;;;;;;;;5094914;28;20367;-72
2023/03/23 03:59:02;;;;;;;35.67;21.45;;;;;;;;;;5080668;28;20024;-71
2023/03/23 04:01:53;;;;;;;35.85;21.48;;;;;;;;;;5081033;28;20419;-70
2023/03/23 04:04:40;;;;;;;40.00;23.27;;;;;;;;;;5110714;28;20024;-71
2023/03/23 04:07:26;;;;;;;39.38;22.38;;;;;;;;;;5080305;28;20059;-71
2023/03/23 04:10:12;;;;;;;37.97;22.67;;;;;;;;;;5099108;28;20024;-70
2023/03/23 04:12:58;;;;;;;36.70;22.02;;;;;;;;;;5104006;28;20046;-72
2023/03/23 04:15:44;;;;;;;35.50;22.20;;;;;;;;;;5101381;28;20028;-71
2023/03/23 04:18:31;;;;;;;37.85;22.15;;;;;;;;;;5104134;28;20016;-72
2023/03/23 04:21:17;;;;;;;41.20;23.75;;;;;;;;;;5088682;28;20081;-73
2023/03/23 04:24:03;;;;;;;41.35;24.25;;;;;;;;;;5099047;28;20334;-72
2023/03/23 04:26:48;;;;;;;39.42;24.05;;;;;;;;;;5084741;28;20111;-72
2023/03/23 04:29:34;;;;;;;38.25;23.65;;;;;;;;;;5098223;28;20324;-71
2023/03/23 04:32:20;;;;;;;40.65;23.25;;;;;;;;;;5097870;28;20020;-71
2023/03/23 04:35:06;;;;;;;40.58;24.38;;;;;;;;;;5084525;28;20020;-72
2023/03/23 04:37:53;;;;;;;40.90;24.05;;;;;;;;;;5099341;28;20024;-72
2023/03/23 04:40:39;;;;;;;37.38;23.05;;;;;;;;;;5084542;28;20099;-72
2023/03/23 04:43:25;;;;;;;40.30;23.45;;;;;;;;;;5084221;28;20107;-72
2023/03/23 04:46:10;;;;;;;40.78;23.40;;;;;;;;;;5082932;28;20016;-72
2023/03/23 04:48:58;;;;;;;41.63;24.17;;;;;;;;;;5086294;28;20102;-71
2023/03/23 04:51:44;;;;;;;40.45;23.63;;;;;;;;;;5098704;28;20360;-72
2023/03/23 04:54:29;;;;;;;40.05;24.42;;;;;;;;;;5084903;28;20024;-72
2023/03/23 04:57:15;;;;;;;40.80;23.85;;;;;;;;;;5100233;28;20016;-71
2023/03/23 05:00:05;;;;;;;42.30;23.35;;;;;;;;;;5101078;28;20038;-72
2023/03/23 05:02:51;;;;;;;45.10;26.45;;;;;;;;;;5099360;28;20103;-71
2023/03/23 05:05:37;;;;;;;44.78;25.85;;;;;;;;;;5083950;28;20039;-72
2023/03/23 05:08:24;;;;;;;42.75;25.88;;;;;;;;;;5099048;28;20020;-71
2023/03/23 05:11:09;;;;;;;42.85;25.67;;;;;;;;;;5099134;28;20016;-73
2023/03/23 05:13:55;;;;;;;41.67;24.95;;;;;;;;;;5084706;28;20035;-72
2023/03/23 05:16:41;;;;;;;44.78;26.02;;;;;;;;;;5098592;28;20031;-71
2023/03/23 05:19:27;;;;;;;46.20;27.63;;;;;;;;;;5097818;28;20028;-72
2023/03/23 05:22:16;;;;;;;45.10;26.63;;;;;;;;;;5097906;28;20024;-73
2023/03/23 05:25:02;;;;;;;48.58;27.73;;;;;;;;;;5097832;28;20509;-72
2023/03/23 05:27:52;;;;;;;47.00;27.25;;;;;;;;;;5084086;28;20069;-71
2023/03/23 05:30:38;;;;;;;56.15;29.48;;;;;;;;;;5097898;28;20024;-71
2023/03/23 05:33:24;;;;;;;45.15;26.85;;;;;;;;;;5095434;28;20384;-72
2023/03/23 05:36:13;;;;;;;50.10;29.02;;;;;;;;;;5098701;28;20463;-72
2023/03/23 05:38:59;;;;;;;53.70;31.85;;;;;;;;;;5097712;28;20101;-72
2023/03/23 05:41:46;;;;;;;48.15;28.08;;;;;;;;;;5083290;28;20021;-71
2023/03/23 05:44:32;;;;;;;42.95;25.52;;;;;;;;;;5096436;28;20024;-72
2023/03/23 05:47:17;;;;;;;42.60;25.73;;;;;;;;;;5097614;28;20011;-71
2023/03/23 05:50:05;;;;;;;39.40;22.95;;;;;;;;;;5098158;28;20028;-72
2023/03/23 05:52:51;;;;;;;37.95;22.23;;;;;;;;;;5097126;28;20059;-70
2023/03/23 05:55:36;;;;;;;31.77;20.70;;;;;;;;;;5097628;28;20345;-73
2023/03/23 05:58:22;;;;;;;36.20;22.20;;;;;;;;;;5083960;28;20031;-72
2023/03/23 06:01:08;;;;;;;35.08;20.35;;;;;;;;;;5097940;28;20103;-72
2023/03/23 06:03:53;;;;;;;35.50;21.55;;;;;;;;;;5102566;28;20386;-71
2023/03/23 06:06:41;;;;;;;35.58;21.10;;;;;;;;;;5102487;28;20108;-72
2023/03/23 06:09:27;;;;;;;42.92;25.83;;;;;;;;;;5101947;28;20394;-72
2023/03/23 06:12:13;;;;;;;44.08;25.45;;;;;;;;;;5092701;28;20020;-70
2023/03/23 06:14:58;;;;;;;49.35;29.40;;;;;;;;;;5103517;28;20019;-71
2023/03/23 06:17:44;;;;;;;53.08;30.80;;;;;;;;;;5103238;28;20420;-72
2023/03/23 06:20:30;;;;;;;56.50;33.60;;;;;;;;;;5102485;28;20028;-71
2023/03/23 06:23:15;;;;;;;59.63;35.22;;;;;;;;;;5103011;28;20372;-71
2023/03/23 06:26:03;;;;;;;54.25;32.10;;;;;;;;;;5101302;28;20008;-72
2023/03/23 06:28:48;;;;;;;49.33;29.60;;;;;;;;;;5099574;28;20023;-71
2023/03/23 06:31:34;;;;;;;43.22;25.50;;;;;;;;;;5095515;28;20012;-72
2023/03/23 06:34:20;;;;;;;43.33;25.27;;;;;;;;;;5095672;28;20050;-72
2023/03/23 06:37:05;;;;;;;42.85;25.08;;;;;;;;;;5099150;27;20040;-72
2023/03/23 06:39:51;;;;;;;47.08;27.35;;;;;;;;;;5096787;28;20108;-72
2023/03/23 06:42:37;;;;;;;45.38;27.10;;;;;;;;;;5096091;28;20074;-73
2023/03/23 06:45:23;;;;;;;43.97;26.23;;;;;;;;;;5095558;28;20149;-72
2023/03/23 06:48:08;;;;;;;45.05;26.73;;;;;;;;;;5095249;28;20085;-74
2023/03/23 06:50:54;;;;;;;42.53;25.58;;;;;;;;;;5084081;28;20034;-71
2023/03/23 06:53:39;;;;;;;35.30;22.70;;;;;;;;;;5096470;28;20510;-72
2023/03/23 06:56:25;;;;;;;34.17;21.92;;;;;;;;;;5106040;28;20028;-73
2023/03/23 06:59:12;;;;;;;37.17;22.00;;;;;;;;;;5107607;28;20084;-73
2023/03/23 07:01:57;;;;;;;35.50;20.58;;;;;;;;;;5108882;28;20026;-71
2023/03/23 07:04:43;;;;;;;37.25;21.70;;;;;;;;;;5105684;28;20016;-72
2023/03/23 07:07:29;;;;;;;35.33;21.77;;;;;;;;;;5103214;28;20048;-71
2023/03/23 07:10:14;;;;;;;35.60;21.08;;;;;;;;;;5108600;28;20020;-70
2023/03/23 07:13:00;;;;;;;33.45;19.73;;;;;;;;;;5092557;28;20023;-70
2023/03/23 07:15:46;;;;;;;39.30;22.08;;;;;;;;;;5109250;28;20023;-70
2023/03/23 07:18:31;;;;;;;32.92;21.40;;;;;;;;;;5087966;28;20097;-72
2023/03/23 07:21:17;;;;;;;36.40;21.55;;;;;;;;;;5096492;28;20023;-73
2023/03/23 07:24:03;;;;;;;37.75;22.65;;;;;;;;;;5081632;28;20016;-73
2023/03/23 07:26:48;;;;;;;31.95;20.40;;;;;;;;;;5080872;28;20016;-72
2023/03/23 07:29:38;;;;;;;35.53;22.50;;;;;;;;;;5095788;28;20024;-72
2023/03/23 07:32:24;;;;;;;39.85;24.98;;;;;;;;;;5096010;28;20032;-73
2023/03/23 07:35:10;;;;;;;36.53;21.17;;;;;;;;;;5080227;28;20052;-71
2023/03/23 07:37:55;;;;;;;34.38;21.10;;;;;;;;;;5093928;28;20047;-72
2023/03/23 07:40:41;;;;;;;32.50;20.38;;;;;;;;;;5095068;28;20024;-72
2023/03/23 07:43:27;;;;;;;36.17;20.23;;;;;;;;;;5095208;28;20425;-71
2023/03/23 07:46:13;;;;;;;31.33;19.90;;;;;;;;;;5094279;28;20095;-72
2023/03/23 07:48:59;;;;;;;32.40;20.55;;;;;;;;;;5094717;28;20039;-72
2023/03/23 07:51:45;;;;;;;25.83;17.05;;;;;;;;;;5094008;28;20031;-71
2023/03/23 07:54:31;;;;;;;31.35;17.65;;;;;;;;;;5095472;28;20051;-73
2023/03/23 07:57:16;;;;;;;24.92;16.23;;;;;;;;;;5094294;28;20028;-72
2023/03/23 08:00:18;;;;;;;26.10;16.05;;;;;;;;;;5093201;28;20089;-71
2023/03/23 08:03:04;;;;;;;26.48;16.60;;;;;;;;;;5079981;28;20022;-71
2023/03/23 08:05:51;;;;;;;28.23;17.08;;;;;;;;;;5080279;28;20040;-71
2023/03/23 08:08:37;;;;;;;26.00;16.80;;;;;;;;;;5080899;28;20113;-71
2023/03/23 08:11:22;;;;;;;72.60;42.88;;;;;;;;;;5095587;28;20102;-72
2023/03/23 08:14:08;;;;;;;27.13;18.20;;;;;;;;;;5080613;28;20023;-72
2023/03/23 08:16:55;;;;;;;24.75;16.33;;;;;;;;;;5094387;28;20060;-72
2023/03/23 08:19:42;;;;;;;28.45;16.95;;;;;;;;;;5093867;28;20027;-72
2023/03/23 08:22:29;;;;;;;33.30;20.25;;;;;;;;;;5095421;28;20090;-72
2023/03/23 08:25:17;;;;;;;32.67;21.00;;;;;;;;;;5080214;28;20356;-71
2023/03/23 08:28:02;;;;;;;32.97;21.35;;;;;;;;;;5094954;28;20469;-72
2023/03/23 08:30:48;;;;;;;31.17;19.33;;;;;;;;;;5081280;28;20024;-71
2023/03/23 08:33:34;;;;;;;30.88;19.05;;;;;;;;;;5093537;28;20020;-72
2023/03/23 08:36:20;;;;;;;31.40;19.35;;;;;;;;;;5095790;28;20097;-72
2023/03/23 08:39:06;;;;;;;29.88;18.67;;;;;;;;;;5093677;28;20451;-71
2023/03/23 08:41:52;;;;;;;30.77;19.38;;;;;;;;;;5094779;28;20035;-72
2023/03/23 08:44:37;;;;;;;30.88;19.63;;;;;;;;;;5094408;28;20025;-71
2023/03/23 08:47:24;;;;;;;30.85;20.10;;;;;;;;;;5094060;28;20016;-73
2023/03/23 08:50:11;;;;;;;27.23;18.20;;;;;;;;;;5093837;28;20056;-72
2023/03/23 08:52:56;;;;;;;30.70;19.27;;;;;;;;;;5093813;28;20028;-72
2023/03/23 08:55:42;;;;;;;28.88;19.10;;;;;;;;;;5080589;28;20020;-71
2023/03/23 08:58:29;;;;;;;32.67;20.38;;;;;;;;;;5095310;28;20365;-72
2023/03/23 09:01:14;;;;;;;31.73;19.80;;;;;;;;;;5098192;28;20066;-71
2023/03/23 09:04:00;;;;;;;28.52;18.88;;;;;;;;;;5100529;28;20353;-74
2023/03/23 09:06:46;;;;;;;30.73;20.20;;;;;;;;;;5100436;28;20058;-72
2023/03/23 09:09:33;;;;;;;35.38;21.23;;;;;;;;;;5085638;28;20074;-72
2023/03/23 09:12:19;;;;;;;31.58;19.85;;;;;;;;;;5083816;28;20016;-73
2023/03/23 09:15:08;;;;;;;42.85;23.45;;;;;;;;;;5097987;28;20452;-72
2023/03/23 09:17:56;;;;;;;37.50;22.65;;;;;;;;;;5097113;28;20031;-73
2023/03/23 09:20:41;;;;;;;31.55;20.25;;;;;;;;;;5084330;28;20444;-72
2023/03/23 09:23:27;;;;;;;34.88;21.25;;;;;;;;;;5097373;28;20036;-72
2023/03/23 09:26:13;;;;;;;32.63;21.33;;;;;;;;;;5097626;28;20035;-72
2023/03/23 09:28:58;;;;;;;34.95;21.73;;;;;;;;;;5098072;28;20024;-72
2023/03/23 09:31:46;;;;;;;32.58;21.20;;;;;;;;;;5097534;28;20111;-72
2023/03/23 09:34:35;;;;;;;37.33;22.60;;;;;;;;;;5097690;28;20411;-72
2023/03/23 09:37:21;;;;;;;32.60;21.17;;;;;;;;;;5084236;28;20027;-71
2023/03/23 09:40:09;;;;;;;36.30;23.38;;;;;;;;;;5099295;28;20085;-73
2023/03/23 09:43:04;;;;;;;29.52;19.90;;;;;;;;;;5099607;28;20162;-71
2023/03/23 09:45:53;;;;;;;35.72;21.42;;;;;;;;;;5084361;28;20047;-72
2023/03/23 09:48:42;;;;;;;34.83;21.15;;;;;;;;;;5107231;28;20040;-73
2023/03/23 09:51:31;;;;;;;35.33;22.50;;;;;;;;;;5098792;28;20016;-71
2023/03/23 09:54:22;;;;;;;35.60;23.15;;;;;;;;;;5097821;28;20108;-72
2023/03/23 09:57:14;;;;;;;34.88;22.00;;;;;;;;;;5097011;28;20338;-72
2023/03/23 10:00:14;;;;;;;34.83;21.98;;;;;;;;;;5098106;28;20024;-71
2023/03/23 10:03:05;;;;;;;34.20;22.33;;;;;;;;;;5098182;28;20020;-72
2023/03/23 10:05:52;;;;;;;32.33;22.05;;;;;;;;;;5097359;28;20434;-71
2023/03/23 10:08:48;;;;;;;33.83;21.65;;;;;;;;;;5096724;28;20024;-72
2023/03/23 10:11:37;;;;;;;30.67;20.95;;;;;;;;;;5095881;28;20342;-71
2023/03/23 10:14:26;;;;;;;32.50;20.92;;;;;;;;;;5082179;28;20027;-72
2023/03/23 10:17:12;;;;;;;27.95;19.55;;;;;;;;;;5096046;28;20073;-72
2023/03/23 10:20:14;;;;;;;28.10;19.27;;;;;;;;;;5096707;28;20083;-71
2023/03/23 10:23:18;;;;;;;28.33;19.58;;;;;;;;;;5095509;28;20097;-72
2023/03/23 10:26:10;;;;;;;30.38;20.02;;;;;;;;;;5096519;28;20030;-72
2023/03/23 10:29:16;;;;;;;33.97;20.15;;;;;;;;;;5098532;28;20034;-71
2023/03/23 10:32:12;;;;;;;28.80;18.75;;;;;;;;;;5093657;28;20452;-70
2023/03/23 10:35:01;;;;;;;31.38;19.88;;;;;;;;;;5097254;28;20032;-72
2023/03/23 10:37:50;;;;;;;29.58;19.85;;;;;;;;;;5082111;28;20016;-72
2023/03/23 10:40:43;;;;;;;27.45;19.55;;;;;;;;;;5097397;28;20038;-72
2023/03/23 10:43:29;;;;;;;26.85;18.75;;;;;;;;;;5096038;28;20028;-71
2023/03/23 10:46:20;;;;;;;27.92;18.50;;;;;;;;;;5097174;28;20020;-71
2023/03/23 10:49:12;;;;;;;26.75;18.83;;;;;;;;;;5096516;28;20023;-71
2023/03/23 10:52:03;;;;;;;33.65;21.67;;;;;;;;;;5096659;28;20021;-71
2023/03/23 10:54:56;;;;;;;28.38;19.25;;;;;;;;;;5096823;28;20152;-72
2023/03/23 10:57:46;;;;;;;26.20;18.98;;;;;;;;;;5097562;28;20340;-72
2023/03/23 11:00:33;;;;;;;30.15;20.33;;;;;;;;;;5096245;28;20436;-71
2023/03/23 11:03:18;;;;;;;27.13;19.33;;;;;;;;;;5096109;28;20054;-71
2023/03/23 11:06:09;;;;;;;26.48;19.05;;;;;;;;;;5096348;28;20044;-71
2023/03/23 11:09:03;;;;;;;30.30;19.02;;;;;;;;;;5097409;28;20031;-71
2023/03/23 11:11:54;;;;;;;28.35;19.60;;;;;;;;;;5095928;28;20020;-72
2023/03/23 11:14:42;;;;;;;28.35;19.33;;;;;;;;;;5095425;28;20052;-72
2023/03/23 11:17:28;;;;;;;29.98;19.20;;;;;;;;;;5096889;28;20035;-72
2023/03/23 11:20:20;;;;;;;30.15;19.95;;;;;;;;;;5082674;28;20421;-72
2023/03/23 11:23:10;;;;;;;37.55;23.33;;;;;;;;;;5096601;28;20392;-71
2023/03/23 11:25:58;;;;;;;30.73;20.80;;;;;;;;;;5082712;28;20093;-70
2023/03/23 11:28:51;;;;;;;30.20;19.73;;;;;;;;;;5095782;28;20027;-71
2023/03/23 11:31:38;;;;;;;29.05;19.73;;;;;;;;;;5094956;28;20031;-71
2023/03/23 11:34:26;;;;;;;26.08;18.67;;;;;;;;;;5096602;28;20020;-71
2023/03/23 11:37:17;;;;;;;35.40;22.33;;;;;;;;;;5096582;28;20031;-71
2023/03/23 11:40:07;;;;;;;26.17;18.52;;;;;;;;;;5096808;28;20115;-72
2023/03/23 11:42:53;;;;;;;27.65;19.20;;;;;;;;;;5095252;28;20032;-72
2023/03/23 11:45:40;;;;;;;25.38;18.98;;;;;;;;;;5094487;28;20020;-72
2023/03/23 11:48:39;;;;;;;29.52;20.70;;;;;;;;;;5081048;28;20020;-71
2023/03/23 11:51:38;;;;;;;29.17;19.75;;;;;;;;;;5095444;28;20020;-72
2023/03/23 11:54:36;;;;;;;35.08;23.10;;;;;;;;;;5095128;28;20032;-71
2023/03/23 11:57:24;;;;;;;26.42;17.70;;;;;;;;;;5094755;28;20419;-71
2023/03/23 12:00:18;;;;;;;24.95;17.20;;;;;;;;;;5094754;28;20123;-71
2023/03/23 12:03:12;;;;;;;25.90;17.58;;;;;;;;;;5080971;28;20396;-72
2023/03/23 12:06:02;;;;;;;23.38;16.73;;;;;;;;;;5091936;28;20059;-72
2023/03/23 12:09:06;;;;;;;22.80;16.40;;;;;;;;;;5074932;28;20370;-71
2023/03/23 12:11:56;;;;;;;27.20;17.00;;;;;;;;;;5074049;28;20025;-72
2023/03/23 12:14:48;;;;;;;30.50;18.40;;;;;;;;;;5075283;28;20026;-72
2023/03/23 12:17:42;;;;;;;25.73;18.20;;;;;;;;;;5073856;28;20442;-72
2023/03/23 12:20:31;;;;;;;23.85;17.35;;;;;;;;;;5074281;28;20465;-72
2023/03/23 12:23:25;;;;;;;23.02;16.80;;;;;;;;;;5074544;28;20025;-71
2023/03/23 12:26:19;;;;;;;24.83;17.30;;;;;;;;;;5075601;28;20021;-71
2023/03/23 12:29:20;;;;;;;27.35;18.52;;;;;;;;;;5061583;28;20016;-73
2023/03/23 12:32:25;;;;;;;22.20;16.38;;;;;;;;;;5074241;28;20029;-72
2023/03/23 12:35:19;;;;;;;25.15;17.10;;;;;;;;;;5073811;28;20024;-72
2023/03/23 12:38:16;;;;;;;27.42;16.63;;;;;;;;;;5074635;28;20048;-73
2023/03/23 12:41:14;;;;;;;24.33;18.08;;;;;;;;;;5059629;28;20341;-72
2023/03/23 12:44:03;;;;;;;25.90;17.52;;;;;;;;;;5063870;28;20021;-72
2023/03/23 12:47:04;;;;;;;26.20;17.48;;;;;;;;;;5063280;28;20044;-72
2023/03/23 12:49:55;;;;;;;25.48;18.25;;;;;;;;;;5077799;28;20028;-71
2023/03/23 12:52:45;;;;;;;26.13;17.60;;;;;;;;;;5078190;28;20020;-72
2023/03/23 12:55:34;;;;;;;26.95;19.60;;;;;;;;;;5078644;28;20118;-72
2023/03/23 12:58:21;;;;;;;25.70;17.45;;;;;;;;;;5077820;28;20029;-72
2023/03/23 13:01:13;;;;;;;26.45;17.80;;;;;;;;;;5065163;28;20464;-71
2023/03/23 13:04:20;;;;;;;27.17;18.23;;;;;;;;;;5077607;28;20028;-72
2023/03/23 13:07:16;;;;;;;25.65;19.25;;;;;;;;;;5090343;28;20040;-74
2023/03/23 13:10:28;;;;;;;27.73;18.45;;;;;;;;;;5083606;28;20085;-71
2023/03/23 13:13:16;;;;;;;29.83;18.60;;;;;;;;;;5098408;28;20031;-73
2023/03/23 13:16:10;;;;;;;25.85;18.80;;;;;;;;;;5097850;28;20016;-73
2023/03/23 13:19:05;;;;;;;26.08;18.23;;;;;;;;;;5096998;28;20020;-72
2023/03/23 13:21:56;;;;;;;25.85;18.55;;;;;;;;;;5081843;28;20024;-72
2023/03/23 13:25:00;;;;;;;27.27;18.80;;;;;;;;;;5098590;28;20020;-72
2023/03/23 13:27:56;;;;;;;26.90;18.80;;;;;;;;;;5083127;28;20437;-72
2023/03/23 13:30:52;;;;;;;25.40;17.15;;;;;;;;;;5096660;28;20103;-72
2023/03/23 13:33:41;;;;;;;24.30;17.40;;;;;;;;;;5068453;28;20038;-72
2023/03/23 13:36:31;;;;;;;24.88;18.30;;;;;;;;;;5096271;28;20024;-71
2023/03/23 13:39:21;;;;;;;23.65;16.98;;;;;;;;;;5083345;28;20031;-72
2023/03/23 13:42:09;;;;;;;24.60;16.73;;;;;;;;;;5098372;28;20016;-71
2023/03/23 13:44:57;;;;;;;25.58;17.40;;;;;;;;;;5083048;28;20067;-72
2023/03/23 13:47:44;;;;;;;23.33;17.50;;;;;;;;;;5098056;28;20086;-72
2023/03/23 13:50:31;;;;;;;29.38;18.52;;;;;;;;;;5081838;28;20044;-71
2023/03/23 13:53:25;;;;;;;26.02;17.73;;;;;;;;;;5097220;28;20103;-71
2023/03/23 13:56:21;;;;;;;24.73;17.13;;;;;;;;;;5097261;28;20099;-71
2023/03/23 13:59:15;;;;;;;27.45;19.23;;;;;;;;;;5083090;28;20035;-71
2023/03/23 14:02:19;;;;;;;25.52;17.30;;;;;;;;;;5096752;28;20451;-73
2023/03/23 14:05:17;;;;;;;23.58;16.65;;;;;;;;;;5096794;28;20081;-71
2023/03/23 14:08:09;;;;;;;34.95;18.33;;;;;;;;;;5080820;28;20141;-72
2023/03/23 14:10:59;;;;;;;24.90;17.33;;;;;;;;;;5096710;28;20020;-72
2023/03/23 14:13:47;;;;;;;25.60;17.33;;;;;;;;;;5096417;28;20056;-72
2023/03/23 14:16:48;;;;;;;27.33;18.00;;;;;;;;;;5096905;28;20118;-72
2023/03/23 14:19:37;;;;;;;29.83;18.08;;;;;;;;;;5096685;28;20432;-72
2023/03/23 14:22:26;;;;;;;23.98;16.88;;;;;;;;;;5096417;28;20030;-73
2023/03/23 14:25:14;;;;;;;30.40;16.95;;;;;;;;;;5083336;28;20043;-72
2023/03/23 14:27:59;;;;;;;26.13;17.48;;;;;;;;;;5096105;28;20093;-72
2023/03/23 14:30:45;;;;;;;22.90;17.20;;;;;;;;;;5095984;28;20095;-72
2023/03/23 14:33:31;;;;;;;25.70;18.30;;;;;;;;;;5096987;28;20016;-71
2023/03/23 14:36:20;;;;;;;27.42;18.88;;;;;;;;;;5095261;28;20035;-72
2023/03/23 14:39:21;;;;;;;48.10;32.25;;;;;;;;;;5095919;28;20028;-72
2023/03/23 14:42:11;;;;;;;29.55;18.80;;;;;;;;;;5095097;28;20036;-72
2023/03/23 14:44:57;;;;;;;28.15;18.67;;;;;;;;;;5080322;28;20099;-72
2023/03/23 14:47:45;;;;;;;26.95;19.13;;;;;;;;;;5082541;28;20012;-71
2023/03/23 14:50:37;;;;;;;27.23;19.08;;;;;;;;;;5096506;28;20066;-72
2023/03/23 14:53:24;;;;;;;26.40;18.73;;;;;;;;;;5096290;28;20020;-72
2023/03/23 14:56:14;;;;;;;26.30;18.23;;;;;;;;;;5081818;28;20452;-71
2023/03/23 14:59:03;;;;;;;25.85;17.13;;;;;;;;;;5081988;28;20089;-72
2023/03/23 15:01:50;;;;;;;24.80;18.25;;;;;;;;;;5096320;28;20027;-71
2023/03/23 15:04:36;;;;;;;26.88;18.33;;;;;;;;;;5095115;28;20032;-72
2023/03/23 15:07:24;;;;;;;27.17;18.92;;;;;;;;;;5095006;28;20056;-71
2023/03/23 15:10:19;;;;;;;27.70;19.75;;;;;;;;;;5095633;28;20394;-72
2023/03/23 15:13:04;;;;;;;26.30;18.35;;;;;;;;;;5095971;28;20020;-71
2023/03/23 15:15:50;;;;;;;27.55;18.13;;;;;;;;;;5095985;28;20060;-72
2023/03/23 15:18:37;;;;;;;27.65;19.38;;;;;;;;;;5096137;28;20028;-71
2023/03/23 15:21:26;;;;;;;32.25;18.30;;;;;;;;;;5096143;28;20024;-70
2023/03/23 15:24:26;;;;;;;28.67;19.65;;;;;;;;;;5095734;28;20031;-72
2023/03/23 15:27:12;;;;;;;28.73;19.67;;;;;;;;;;5080619;28;20020;-72
2023/03/23 15:30:17;;;;;;;27.10;18.65;;;;;;;;;;5079801;28;20024;-73
2023/03/23 15:33:12;;;;;;;30.58;20.27;;;;;;;;;;5080884;28;20031;-70
2023/03/23 15:35:58;;;;;;;28.98;19.90;;;;;;;;;;5095983;28;20118;-70
2023/03/23 15:38:46;;;;;;;37.45;20.83;;;;;;;;;;5094722;28;20112;-72
2023/03/23 15:41:35;;;;;;;29.55;18.40;;;;;;;;;;5094956;28;20350;-71
2023/03/23 15:44:31;;;;;;;32.80;19.27;;;;;;;;;;5094864;28;20058;-72
2023/03/23 15:47:19;;;;;;;27.08;19.90;;;;;;;;;;5095876;28;20020;-71
2023/03/23 15:50:11;;;;;;;28.67;19.40;;;;;;;;;;5098139;28;20016;-72
2023/03/23 15:52:57;;;;;;;27.23;18.73;;;;;;;;;;5081096;28;20405;-71
2023/03/23 15:55:43;;;;;;;26.75;19.27;;;;;;;;;;5081802;28;20074;-71
2023/03/23 15:58:29;;;;;;;29.35;19.30;;;;;;;;;;5095012;28;20035;-71
2023/03/23 16:01:19;;;;;;;27.88;19.40;;;;;;;;;;5095265;28;20165;-71
2023/03/23 16:04:10;;;;;;;28.45;19.90;;;;;;;;;;5094825;28;20093;-71
2023/03/23 16:06:57;;;;;;;28.35;20.33;;;;;;;;;;5093579;28;20036;-71
2023/03/23 16:09:44;;;;;;;29.70;20.52;;;;;;;;;;5080322;28;20020;-70
2023/03/23 16:12:30;;;;;;;29.17;20.60;;;;;;;;;;5095527;28;20423;-71
2023/03/23 16:15:16;;;;;;;29.25;19.83;;;;;;;;;;5094961;28;20026;-71
2023/03/23 16:18:01;;;;;;;27.95;19.42;;;;;;;;;;5097350;28;20514;-70
2023/03/23 16:20:48;;;;;;;31.15;20.67;;;;;;;;;;5085119;28;20105;-70